createdAt,value
2018-10-11T00:01:33.974Z,99.90
2018-10-11T00:04:02.101Z,99.90
2018-10-11T00:06:30.286Z,99.90
2018-10-11T00:08:58.433Z,99.90
2018-10-11T00:11:26.567Z,99.90
2018-10-11T00:13:54.702Z,99.90
2018-10-11T00:16:22.844Z,99.90
2018-10-11T00:18:50.972Z,99.90
2018-10-11T00:21:19.102Z,99.90
2018-10-11T00:23:47.244Z,99.90
2018-10-11T00:26:15.361Z,99.90
2018-10-11T00:28:43.498Z,99.90
2018-10-11T00:31:11.693Z,99.90
2018-10-11T00:33:39.826Z,99.90
2018-10-11T00:36:07.952Z,99.90
2018-10-11T00:38:36.165Z,99.90
2018-10-11T00:41:04.292Z,99.90
2018-10-11T00:43:32.497Z,99.90
2018-10-11T00:46:00.627Z,99.90
2018-10-11T00:48:28.785Z,99.90
2018-10-11T00:51:08.105Z,99.90
2018-10-11T00:53:42.174Z,99.90
2018-10-11T00:56:10.452Z,99.90
2018-10-11T00:58:38.781Z,99.90
2018-10-11T01:01:07.117Z,99.90
2018-10-11T01:03:35.350Z,99.90
2018-10-11T01:06:03.539Z,99.90
2018-10-11T01:08:31.690Z,99.90
2018-10-11T01:11:00.166Z,99.90
2018-10-11T01:13:28.340Z,99.90
2018-10-11T01:15:56.622Z,99.90
2018-10-11T01:18:24.750Z,99.90
2018-10-11T01:20:53.022Z,99.90
2018-10-11T01:23:21.174Z,99.90
2018-10-11T01:25:49.494Z,99.90
2018-10-11T01:28:18.681Z,99.90
2018-10-11T01:30:52.202Z,99.90
2018-10-11T01:33:20.704Z,99.90
2018-10-11T01:35:48.956Z,99.90
2018-10-11T01:38:17.382Z,99.90
2018-10-11T01:40:45.593Z,99.90
2018-10-11T01:43:13.848Z,99.90
2018-10-11T01:45:42.065Z,99.90
2018-10-11T01:48:10.253Z,99.90
2018-10-11T01:50:38.388Z,99.90
2018-10-11T01:53:06.562Z,99.90
2018-10-11T01:55:34.685Z,99.90
2018-10-11T01:58:02.986Z,99.90
2018-10-11T02:00:31.316Z,99.90
2018-10-11T02:03:00.075Z,99.90
2018-10-11T02:05:28.740Z,99.90
2018-10-11T02:07:57.850Z,99.90
2018-10-11T02:10:27.197Z,99.90
2018-10-11T02:12:55.793Z,99.90
2018-10-11T02:15:24.357Z,99.90
2018-10-11T02:17:52.482Z,99.90
2018-10-11T02:20:20.619Z,99.90
2018-10-11T02:22:48.755Z,99.90
2018-10-11T02:25:17.274Z,99.90
2018-10-11T02:27:45.434Z,99.90
2018-10-11T02:30:13.889Z,99.90
2018-10-11T02:32:42.599Z,99.90
2018-10-11T02:35:11.449Z,99.90
2018-10-11T02:37:39.746Z,99.90
2018-10-11T02:40:07.863Z,99.90
2018-10-11T02:42:36.002Z,99.90
2018-10-11T02:45:04.316Z,99.90
2018-10-11T02:47:32.481Z,99.90
2018-10-11T02:50:01.209Z,99.90
2018-10-11T02:52:29.593Z,99.90
2018-10-11T02:54:57.864Z,99.90
2018-10-11T02:57:37.537Z,99.90
2018-10-11T03:00:05.673Z,99.90
2018-10-11T03:02:35.246Z,99.90
2018-10-11T03:05:03.512Z,99.90
2018-10-11T03:07:31.762Z,99.90
2018-10-11T03:10:00.307Z,99.90
2018-10-11T03:12:28.463Z,99.90
2018-10-11T03:14:56.582Z,99.90
2018-10-11T03:17:25.233Z,99.90
2018-10-11T03:19:53.393Z,99.90
2018-10-11T03:22:21.675Z,99.90
2018-10-11T03:24:49.842Z,99.90
2018-10-11T03:27:17.973Z,99.90
2018-10-11T03:29:46.210Z,99.90
2018-10-11T03:32:14.421Z,99.90
2018-10-11T03:34:42.513Z,99.90
2018-10-11T03:37:10.961Z,99.90
2018-10-11T03:39:39.112Z,99.90
2018-10-11T03:42:07.346Z,99.90
2018-10-11T03:44:35.429Z,99.90
2018-10-11T03:47:03.545Z,99.90
2018-10-11T03:49:31.954Z,99.90
2018-10-11T03:52:00.117Z,99.90
2018-10-11T03:54:28.268Z,99.90
2018-10-11T03:56:56.706Z,99.90
2018-10-11T03:59:25.379Z,99.90
2018-10-11T04:01:53.583Z,99.90
2018-10-11T04:04:22.196Z,99.90
2018-10-11T04:06:50.325Z,99.90
2018-10-11T04:09:18.414Z,99.90
2018-10-11T04:11:46.534Z,99.90
2018-10-11T04:14:14.646Z,99.90
2018-10-11T04:16:42.846Z,99.90
2018-10-11T04:19:11.201Z,99.90
2018-10-11T04:21:39.479Z,99.90
2018-10-11T04:24:07.624Z,99.90
2018-10-11T04:26:35.759Z,99.90
2018-10-11T04:29:03.834Z,99.90
2018-10-11T04:31:31.989Z,99.90
2018-10-11T04:34:00.104Z,99.90
2018-10-11T04:36:28.286Z,99.90
2018-10-11T04:38:56.378Z,99.90
2018-10-11T04:41:24.453Z,99.90
2018-10-11T04:43:52.556Z,99.90
2018-10-11T04:46:20.671Z,99.90
2018-10-11T04:48:54.750Z,99.90
2018-10-11T04:51:23.259Z,99.90
2018-10-11T04:53:56.613Z,99.90
2018-10-11T04:56:26.643Z,99.90
2018-10-11T04:58:55.019Z,99.90
2018-10-11T05:01:23.243Z,99.90
2018-10-11T05:03:51.490Z,99.90
2018-10-11T05:06:19.626Z,99.90
2018-10-11T05:08:47.944Z,99.90
2018-10-11T05:11:16.230Z,99.90
2018-10-11T05:13:46.931Z,99.90
2018-10-11T05:16:16.386Z,99.90
2018-10-11T05:18:46.171Z,99.90
2018-10-11T05:21:14.561Z,99.90
2018-10-11T05:23:43.998Z,99.90
2018-10-11T05:26:12.413Z,99.90
2018-10-11T05:28:41.163Z,99.90
2018-10-11T05:31:09.349Z,99.90
2018-10-11T05:33:37.810Z,99.90
2018-10-11T05:36:05.997Z,99.90
2018-10-11T05:38:34.151Z,99.90
2018-10-11T05:41:02.325Z,99.90
2018-10-11T05:43:30.486Z,99.90
2018-10-11T05:46:00.523Z,99.90
2018-10-11T05:48:30.326Z,99.90
2018-10-11T05:50:59.943Z,99.90
2018-10-11T05:53:28.133Z,99.90
2018-10-11T05:55:56.831Z,99.90
2018-10-11T05:58:25.179Z,99.90
2018-10-11T06:00:53.426Z,99.90
2018-10-11T06:03:21.674Z,99.90
2018-10-11T06:05:50.000Z,99.90
2018-10-11T06:08:18.306Z,99.90
2018-10-11T06:10:46.762Z,99.90
2018-10-11T06:13:15.032Z,99.90
2018-10-11T06:15:43.622Z,99.90
2018-10-11T06:18:12.406Z,99.90
2018-10-11T06:20:40.695Z,99.90
2018-10-11T06:23:09.138Z,99.90
2018-10-11T06:25:37.661Z,99.90
2018-10-11T06:28:06.031Z,99.90
2018-10-11T06:30:35.152Z,99.90
2018-10-11T06:33:03.417Z,99.90
2018-10-11T06:35:32.105Z,99.90
2018-10-11T06:38:00.470Z,99.90
2018-10-11T06:40:28.757Z,99.90
2018-10-11T06:42:56.943Z,99.90
2018-10-11T06:45:25.296Z,99.90
2018-10-11T06:47:56.378Z,99.90
2018-10-11T06:50:24.913Z,99.90
2018-10-11T06:52:53.208Z,99.90
2018-10-11T06:55:21.400Z,99.90
2018-10-11T06:57:49.651Z,99.90
2018-10-11T07:00:17.951Z,99.90
2018-10-11T07:02:46.127Z,99.90
2018-10-11T07:05:14.278Z,99.90
2018-10-11T07:07:42.466Z,99.90
2018-10-11T07:10:10.906Z,99.90
2018-10-11T07:12:39.266Z,99.90
2018-10-11T07:15:07.461Z,99.90
2018-10-11T07:17:35.641Z,99.90
2018-10-11T07:20:04.209Z,99.90
2018-10-11T07:22:32.402Z,99.90
2018-10-11T07:25:00.742Z,99.90
2018-10-11T07:27:28.946Z,99.90
2018-10-11T07:29:57.298Z,99.90
2018-10-11T07:32:25.633Z,99.90
2018-10-11T07:34:53.876Z,99.90
2018-10-11T07:37:22.014Z,99.90
2018-10-11T07:39:51.017Z,99.90
2018-10-11T07:42:19.257Z,99.90
2018-10-11T07:44:47.768Z,99.90
2018-10-11T07:47:15.953Z,99.90
2018-10-11T07:49:44.025Z,99.90
2018-10-11T07:52:12.186Z,99.90
2018-10-11T07:54:40.346Z,99.90
2018-10-11T07:57:08.527Z,99.90
2018-10-11T07:59:36.903Z,99.90
2018-10-11T08:02:05.132Z,99.90
2018-10-11T08:04:33.316Z,99.90
2018-10-11T08:07:01.525Z,99.90
2018-10-11T08:09:29.705Z,99.90
2018-10-11T08:11:58.343Z,99.90
2018-10-11T08:14:26.635Z,99.90
2018-10-11T08:16:55.466Z,99.90
2018-10-11T08:19:23.701Z,99.90
2018-10-11T08:21:51.764Z,99.90
2018-10-11T08:24:20.258Z,99.90
2018-10-11T08:26:48.636Z,99.90
2018-10-11T08:29:16.831Z,99.90
2018-10-11T08:31:45.069Z,99.90
2018-10-11T08:34:13.463Z,99.90
2018-10-11T08:36:41.695Z,99.90
2018-10-11T08:39:11.829Z,99.90
2018-10-11T08:41:40.325Z,99.90
2018-10-11T08:44:09.612Z,99.90
2018-10-11T08:46:37.955Z,99.90
2018-10-11T08:49:06.319Z,99.90
2018-10-11T08:51:34.691Z,99.90
2018-10-11T08:54:08.325Z,99.90
2018-10-11T08:56:36.613Z,99.90
2018-10-11T08:59:05.114Z,99.90
2018-10-11T09:01:33.327Z,99.90
2018-10-11T09:04:01.854Z,99.90
2018-10-11T09:06:30.227Z,99.90
2018-10-11T09:08:58.516Z,99.90
2018-10-11T09:11:27.055Z,99.90
2018-10-11T09:13:55.294Z,99.90
2018-10-11T09:16:23.686Z,99.90
2018-10-11T09:18:51.882Z,99.90
2018-10-11T09:21:20.403Z,99.90
2018-10-11T09:23:48.720Z,99.90
2018-10-11T09:26:16.934Z,99.90
2018-10-11T09:28:45.144Z,99.90
2018-10-11T09:31:13.505Z,99.90
2018-10-11T09:33:41.921Z,99.90
2018-10-11T09:36:10.311Z,99.90
2018-10-11T09:38:38.708Z,99.90
2018-10-11T09:41:07.151Z,99.90
2018-10-11T09:43:35.394Z,99.90
2018-10-11T09:46:03.773Z,99.90
2018-10-11T09:48:32.128Z,99.90
2018-10-11T09:51:00.614Z,99.90
2018-10-11T09:53:29.131Z,99.90
2018-10-11T09:55:57.438Z,99.90
2018-10-11T09:58:25.764Z,99.90
2018-10-11T10:00:59.366Z,99.90
2018-10-11T10:03:27.791Z,99.90
2018-10-11T10:05:56.282Z,99.90
2018-10-11T10:08:24.586Z,99.90
2018-10-11T10:10:52.902Z,99.90
2018-10-11T10:13:21.202Z,99.90
2018-10-11T10:15:49.655Z,99.90
2018-10-11T10:18:18.015Z,99.90
2018-10-11T10:20:46.231Z,99.90
2018-10-11T10:23:14.504Z,99.90
2018-10-11T10:25:42.659Z,99.90
2018-10-11T10:28:10.964Z,99.90
2018-10-11T10:30:44.927Z,99.90
2018-10-11T10:33:13.173Z,99.90
2018-10-11T10:35:41.664Z,98.30
2018-10-11T10:38:10.005Z,97.70
2018-10-11T10:40:38.333Z,97.40
2018-10-11T10:43:06.603Z,96.90
2018-10-11T10:45:34.806Z,97.30
2018-10-11T10:48:03.095Z,96.50
2018-10-11T10:50:31.631Z,96.50
2018-10-11T10:52:59.843Z,96.00
2018-10-11T10:55:28.194Z,96.90
2018-10-11T10:57:56.510Z,95.40
2018-10-11T11:00:24.943Z,96.20
2018-10-11T11:02:53.323Z,96.10
2018-10-11T11:05:21.656Z,95.60
2018-10-11T11:07:50.047Z,95.30
2018-10-11T11:10:18.297Z,94.40
2018-10-11T11:12:46.531Z,94.90
2018-10-11T11:15:14.670Z,94.70
2018-10-11T11:17:43.136Z,94.80
2018-10-11T11:20:11.587Z,94.60
2018-10-11T11:22:40.697Z,93.50
2018-10-11T11:25:09.089Z,93.40
2018-10-11T11:27:37.403Z,92.60
2018-10-11T11:30:05.894Z,93.30
2018-10-11T11:32:34.302Z,92.40
2018-10-11T11:35:02.737Z,92.70
2018-10-11T11:37:31.044Z,92.10
2018-10-11T11:39:59.318Z,92.70
2018-10-11T11:42:27.595Z,92.50
2018-10-11T11:44:55.881Z,91.10
2018-10-11T11:47:24.208Z,91.50
2018-10-11T11:49:52.771Z,90.80
2018-10-11T11:52:21.076Z,90.80
2018-10-11T11:54:49.280Z,89.60
2018-10-11T11:57:17.579Z,90.50
2018-10-11T11:59:45.965Z,88.90
2018-10-11T12:02:14.294Z,89.30
2018-10-11T12:04:42.585Z,86.80
2018-10-11T12:07:11.075Z,86.40
2018-10-11T12:09:39.371Z,85.80
2018-10-11T12:12:07.619Z,87.10
2018-10-11T12:14:36.009Z,86.40
2018-10-11T12:17:04.475Z,86.80
2018-10-11T12:19:32.774Z,86.60
2018-10-11T12:22:01.237Z,85.80
2018-10-11T12:24:29.667Z,86.60
2018-10-11T12:26:58.006Z,86.30
2018-10-11T12:29:26.475Z,84.60
2018-10-11T12:31:55.024Z,83.70
2018-10-11T12:34:23.446Z,85.80
2018-10-11T12:36:51.836Z,82.30
2018-10-11T12:39:20.141Z,79.80
2018-10-11T12:41:48.664Z,80.10
2018-10-11T12:44:16.843Z,79.70
2018-10-11T12:46:45.052Z,78.70
2018-10-11T12:49:13.495Z,79.10
2018-10-11T12:51:41.748Z,78.20
2018-10-11T12:54:10.097Z,77.10
2018-10-11T12:56:38.552Z,77.70
2018-10-11T12:59:06.897Z,77.00
2018-10-11T13:01:35.293Z,75.10
2018-10-11T13:04:03.730Z,75.80
2018-10-11T13:06:31.969Z,75.90
2018-10-11T13:09:00.403Z,76.70
2018-10-11T13:11:28.696Z,73.40
2018-10-11T13:13:57.026Z,74.60
2018-10-11T13:16:25.447Z,74.00
2018-10-11T13:18:53.683Z,73.60
2018-10-11T13:21:22.041Z,74.70
2018-10-11T13:23:50.490Z,75.00
2018-10-11T13:26:18.822Z,74.60
2018-10-11T13:28:47.266Z,74.00
2018-10-11T13:31:15.646Z,75.70
2018-10-11T13:33:44.042Z,74.70
2018-10-11T13:36:12.314Z,75.00
2018-10-11T13:38:40.510Z,76.90
2018-10-11T13:41:08.781Z,74.60
2018-10-11T13:43:37.045Z,74.00
2018-10-11T13:46:05.350Z,76.00
2018-10-11T13:48:33.605Z,73.90
2018-10-11T13:51:01.987Z,75.30
2018-10-11T13:53:30.297Z,74.80
2018-10-11T13:55:59.258Z,74.10
2018-10-11T13:58:26.922Z,76.40
2018-10-11T14:00:55.269Z,74.20
2018-10-11T14:03:23.638Z,74.30
2018-10-11T14:05:52.348Z,75.90
2018-10-11T14:08:20.706Z,77.50
2018-10-11T14:10:49.097Z,74.90
2018-10-11T14:13:19.830Z,75.80
2018-10-11T14:15:45.667Z,74.20
2018-10-11T14:18:14.111Z,74.70
2018-10-11T14:20:42.618Z,75.40
2018-10-11T14:23:11.027Z,76.50
2018-10-11T14:25:39.362Z,76.10
2018-10-11T14:28:07.670Z,77.80
2018-10-11T14:30:36.095Z,75.50
2018-10-11T14:33:04.275Z,76.20
2018-10-11T14:35:32.462Z,76.60
2018-10-11T14:38:00.899Z,75.90
2018-10-11T14:40:29.292Z,77.70
2018-10-11T14:42:57.603Z,82.00
2018-10-11T14:45:25.832Z,84.80
2018-10-11T14:47:54.295Z,85.40
2018-10-11T14:50:22.623Z,85.70
2018-10-11T14:52:50.952Z,86.10
2018-10-11T14:55:19.361Z,85.90
2018-10-11T14:57:47.703Z,86.60
2018-10-11T15:00:15.928Z,87.00
2018-10-11T15:02:44.390Z,87.20
2018-10-11T15:05:12.724Z,88.10
2018-10-11T15:07:40.970Z,88.90
2018-10-11T15:10:09.428Z,89.80
2018-10-11T15:12:37.892Z,90.00
2018-10-11T15:15:06.286Z,90.30
2018-10-11T15:17:34.771Z,90.50
2018-10-11T15:20:03.157Z,90.70
2018-10-11T15:22:31.625Z,90.80
2018-10-11T15:24:59.989Z,91.00
2018-10-11T15:27:28.298Z,90.90
2018-10-11T15:29:56.805Z,90.90
2018-10-11T15:32:25.394Z,91.20
2018-10-11T15:34:53.855Z,91.00
2018-10-11T15:37:22.224Z,90.90
2018-10-11T15:39:50.723Z,90.50
2018-10-11T15:42:19.206Z,90.10
2018-10-11T15:44:47.359Z,90.30
2018-10-11T15:47:15.532Z,91.00
2018-10-11T15:49:43.681Z,87.80
2018-10-11T15:52:11.851Z,87.70
2018-10-11T15:54:40.022Z,86.90
2018-10-11T15:57:08.224Z,86.80
2018-10-11T15:59:36.364Z,87.10
2018-10-11T16:02:04.520Z,87.40
2018-10-11T16:04:32.769Z,89.50
2018-10-11T16:07:00.925Z,90.30
2018-10-11T16:09:29.141Z,90.80
2018-10-11T16:11:57.230Z,91.10
2018-10-11T16:14:25.391Z,91.30
2018-10-11T16:16:54.589Z,91.20
2018-10-11T16:19:22.724Z,90.80
2018-10-11T16:21:50.799Z,89.50
2018-10-11T16:24:18.916Z,89.30
2018-10-11T16:26:47.035Z,90.40
2018-10-11T16:29:15.175Z,90.80
2018-10-11T16:31:43.300Z,90.80
2018-10-11T16:34:11.427Z,91.00
2018-10-11T16:36:39.534Z,91.30
2018-10-11T16:39:08.513Z,91.10
2018-10-11T16:41:36.620Z,91.80
2018-10-11T16:44:04.852Z,91.70
2018-10-11T16:46:33.247Z,92.00
2018-10-11T16:49:01.391Z,92.10
2018-10-11T16:51:29.535Z,92.40
2018-10-11T16:53:58.259Z,92.20
2018-10-11T16:56:26.368Z,92.30
2018-10-11T16:58:54.484Z,92.50
2018-10-11T17:01:22.613Z,92.60
2018-10-11T17:03:50.838Z,92.40
2018-10-11T17:06:18.942Z,92.70
2018-10-11T17:08:47.054Z,92.80
2018-10-11T17:11:15.168Z,93.10
2018-10-11T17:13:43.279Z,93.20
2018-10-11T17:16:11.408Z,93.20
2018-10-11T17:18:39.517Z,93.30
2018-10-11T17:21:07.796Z,93.70
2018-10-11T17:23:36.029Z,93.90
2018-10-11T17:26:04.155Z,94.20
2018-10-11T17:28:32.266Z,94.40
2018-10-11T17:31:00.380Z,94.50
2018-10-11T17:33:28.484Z,94.80
2018-10-11T17:35:56.604Z,95.10
2018-10-11T17:38:24.733Z,95.20
2018-10-11T17:40:52.855Z,95.70
2018-10-11T17:43:20.971Z,96.10
2018-10-11T17:45:49.084Z,96.40
2018-10-11T17:48:17.183Z,96.70
2018-10-11T17:50:45.287Z,97.10
2018-10-11T17:53:13.403Z,97.60
2018-10-11T17:55:41.626Z,97.70
2018-10-11T17:58:09.792Z,98.00
2018-10-11T18:00:37.986Z,98.00
2018-10-11T18:03:06.185Z,98.30
2018-10-11T18:05:34.312Z,98.50
2018-10-11T18:08:02.435Z,98.70
2018-10-11T18:10:30.560Z,98.70
2018-10-11T18:12:58.688Z,98.70
2018-10-11T18:15:26.838Z,99.00
2018-10-11T18:17:54.985Z,99.00
2018-10-11T18:20:23.130Z,99.00
2018-10-11T18:22:51.273Z,99.40
2018-10-11T18:25:19.427Z,99.80
2018-10-11T18:27:47.560Z,99.90
2018-10-11T18:30:15.710Z,99.90
2018-10-11T18:32:43.852Z,99.90
2018-10-11T18:35:12.022Z,99.90
2018-10-11T18:37:40.183Z,99.80
2018-10-11T18:40:08.356Z,99.90
2018-10-11T18:42:36.512Z,99.90
2018-10-11T18:45:04.692Z,99.90
2018-10-11T18:47:32.841Z,99.90
2018-10-11T18:50:01.852Z,99.90
2018-10-11T18:52:30.081Z,99.90
2018-10-11T18:54:58.216Z,99.90
2018-10-11T18:57:26.355Z,99.90
2018-10-11T18:59:55.509Z,99.90
2018-10-11T19:02:23.652Z,99.90
2018-10-11T19:04:51.820Z,99.90
2018-10-11T19:07:20.070Z,99.90
2018-10-11T19:09:48.202Z,99.90
2018-10-11T19:12:16.349Z,99.90
2018-10-11T19:14:44.535Z,99.90
2018-10-11T19:17:12.714Z,99.90
2018-10-11T19:19:40.860Z,99.90
2018-10-11T19:22:09.253Z,99.90
2018-10-11T19:24:37.412Z,99.90
2018-10-11T19:27:05.584Z,99.90
2018-10-11T19:29:33.732Z,99.90
2018-10-11T19:32:01.893Z,99.90
2018-10-11T19:34:30.024Z,99.90
2018-10-11T19:36:58.163Z,99.90
2018-10-11T19:39:26.423Z,99.90
2018-10-11T19:41:54.509Z,99.90
2018-10-11T19:44:22.650Z,99.90
2018-10-11T19:46:50.783Z,99.90
2018-10-11T19:49:18.942Z,99.90
2018-10-11T19:51:47.091Z,99.90
2018-10-11T19:54:15.218Z,99.90
2018-10-11T19:56:43.367Z,99.90
2018-10-11T19:59:11.556Z,99.90
2018-10-11T20:01:39.712Z,99.90
2018-10-11T20:04:07.863Z,99.90
2018-10-11T20:06:42.155Z,99.90
2018-10-11T20:09:18.713Z,99.90
2018-10-11T20:11:46.858Z,99.90
2018-10-11T20:14:15.001Z,99.90
2018-10-11T20:16:43.155Z,99.90
2018-10-11T20:19:11.331Z,99.90
2018-10-11T20:21:39.484Z,99.90
2018-10-11T20:24:07.639Z,99.90
2018-10-11T20:26:35.800Z,99.90
2018-10-11T20:29:03.940Z,99.90
2018-10-11T20:31:32.075Z,99.90
2018-10-11T20:34:00.223Z,99.90
2018-10-11T20:36:28.383Z,99.90
2018-10-11T20:38:56.528Z,99.90
2018-10-11T20:41:24.686Z,99.90
2018-10-11T20:43:52.870Z,99.90
2018-10-11T20:46:21.040Z,99.90
2018-10-11T20:48:49.191Z,99.90
2018-10-11T20:51:17.331Z,99.90
2018-10-11T20:53:45.479Z,99.90
2018-10-11T20:56:13.611Z,99.90
2018-10-11T20:58:41.772Z,99.90
2018-10-11T21:01:09.907Z,99.90
2018-10-11T21:03:38.072Z,99.90
2018-10-11T21:06:06.236Z,99.90
2018-10-11T21:08:34.736Z,99.90
2018-10-11T21:11:02.868Z,99.90
2018-10-11T21:13:31.023Z,99.90
2018-10-11T21:15:59.155Z,99.90
2018-10-11T21:18:27.271Z,99.90
2018-10-11T21:20:55.382Z,99.90
2018-10-11T21:23:23.510Z,99.90
2018-10-11T21:25:51.624Z,99.90
2018-10-11T21:28:19.809Z,99.90
2018-10-11T21:30:47.884Z,99.90
2018-10-11T21:33:16.019Z,99.90
2018-10-11T21:35:44.140Z,99.90
2018-10-11T21:38:12.261Z,99.90
2018-10-11T21:40:40.384Z,99.90
2018-10-11T21:43:08.503Z,99.90
2018-10-11T21:45:36.627Z,99.90
2018-10-11T21:48:04.750Z,99.90
2018-10-11T21:50:32.872Z,99.90
2018-10-11T21:53:01.068Z,99.90
2018-10-11T21:55:29.180Z,99.90
2018-10-11T21:57:57.308Z,99.90
2018-10-11T22:00:30.735Z,99.90
2018-10-11T22:02:58.866Z,99.90
2018-10-11T22:05:26.984Z,99.90
2018-10-11T22:07:55.128Z,99.90
2018-10-11T22:10:23.907Z,99.90
2018-10-11T22:12:52.025Z,99.90
2018-10-11T22:15:20.149Z,99.90
2018-10-11T22:17:48.271Z,99.90
2018-10-11T22:20:16.374Z,99.90
2018-10-11T22:22:44.510Z,99.90
2018-10-11T22:25:12.642Z,99.90
2018-10-11T22:27:40.763Z,99.90
2018-10-11T22:30:09.047Z,99.90
2018-10-11T22:32:37.170Z,99.90
2018-10-11T22:35:05.319Z,99.90
2018-10-11T22:37:33.423Z,99.90
2018-10-11T22:40:01.549Z,99.90
2018-10-11T22:42:29.648Z,99.90
2018-10-11T22:44:57.761Z,99.90
2018-10-11T22:47:25.893Z,99.90
2018-10-11T22:49:54.026Z,99.90
2018-10-11T22:52:22.138Z,99.90
2018-10-11T22:54:50.247Z,99.90
2018-10-11T22:57:18.445Z,99.90
2018-10-11T22:59:46.545Z,99.90
2018-10-11T23:02:14.664Z,99.90
2018-10-11T23:04:42.777Z,99.90
2018-10-11T23:07:11.174Z,99.90
2018-10-11T23:09:39.293Z,99.90
2018-10-11T23:12:07.398Z,99.90
2018-10-11T23:14:35.603Z,99.90
2018-10-11T23:17:03.748Z,99.90
2018-10-11T23:19:31.862Z,99.90
2018-10-11T23:21:59.963Z,99.90
2018-10-11T23:24:28.099Z,99.90
2018-10-11T23:26:56.464Z,99.90
2018-10-11T23:29:24.588Z,99.90
2018-10-11T23:31:52.721Z,99.90
2018-10-11T23:34:20.848Z,99.90
2018-10-11T23:36:48.965Z,99.90
2018-10-11T23:39:17.117Z,99.90
2018-10-11T23:41:45.229Z,99.90
2018-10-11T23:44:13.351Z,99.90
2018-10-11T23:46:41.472Z,99.90
2018-10-11T23:49:09.620Z,99.90
2018-10-11T23:51:37.754Z,99.90
2018-10-11T23:54:05.916Z,99.90
2018-10-11T23:56:34.120Z,99.90
2018-10-11T23:59:02.279Z,99.90
